sensor_id;sensor_type;location;lat;lon;timestamp;pressure;altitude;pressure_sealevel;temperature;humidity
66681;BME280;53575;51.366;12.350;2022-07-04T00:02:24;100234.81;;;22.31;54.69
66681;BME280;53575;51.366;12.350;2022-07-04T00:04:49;100237.03;;;22.23;54.93
66681;BME280;53575;51.366;12.350;2022-07-04T00:07:15;100238.53;;;22.11;55.39
66681;BME280;53575;51.366;12.350;2022-07-04T00:09:40;100238.75;;;22.24;55.08
66681;BME280;53575;51.366;12.350;2022-07-04T00:12:06;100234.75;;;22.17;55.60
66681;BME280;53575;51.366;12.350;2022-07-04T00:14:31;100241.78;;;22.01;56.39
66681;BME280;53575;51.366;12.350;2022-07-04T00:16:57;100251.75;;;21.97;56.33
66681;BME280;53575;51.366;12.350;2022-07-04T00:19:22;100249.44;;;22.07;56.05
66681;BME280;53575;51.366;12.350;2022-07-04T00:21:48;100263.75;;;21.88;56.79
66681;BME280;53575;51.366;12.350;2022-07-04T00:24:13;100270.63;;;21.93;56.39
66681;BME280;53575;51.366;12.350;2022-07-04T00:26:38;100275.25;;;21.89;56.96
66681;BME280;53575;51.366;12.350;2022-07-04T00:29:04;100272.03;;;21.82;57.04
66681;BME280;53575;51.366;12.350;2022-07-04T00:31:29;100273.34;;;21.75;57.71
66681;BME280;53575;51.366;12.350;2022-07-04T00:33:54;100282.44;;;21.71;58.02
66681;BME280;53575;51.366;12.350;2022-07-04T00:36:20;100275.50;;;21.67;58.30
66681;BME280;53575;51.366;12.350;2022-07-04T00:38:45;100289.31;;;21.58;58.96
66681;BME280;53575;51.366;12.350;2022-07-04T00:41:11;100280.31;;;21.43;59.55
66681;BME280;53575;51.366;12.350;2022-07-04T00:43:36;100285.41;;;21.48;60.01
66681;BME280;53575;51.366;12.350;2022-07-04T00:46:05;100290.84;;;21.27;61.01
66681;BME280;53575;51.366;12.350;2022-07-04T00:48:33;100292.25;;;21.17;61.42
66681;BME280;53575;51.366;12.350;2022-07-04T00:50:59;100288.06;;;20.94;62.35
66681;BME280;53575;51.366;12.350;2022-07-04T00:53:24;100292.91;;;20.86;63.24
66681;BME280;53575;51.366;12.350;2022-07-04T00:55:51;100298.75;;;20.75;63.96
66681;BME280;53575;51.366;12.350;2022-07-04T00:58:20;100298.69;;;20.77;64.13
66681;BME280;53575;51.366;12.350;2022-07-04T01:00:46;100289.72;;;20.60;64.50
66681;BME280;53575;51.366;12.350;2022-07-04T01:03:11;100285.91;;;20.66;64.66
66681;BME280;53575;51.366;12.350;2022-07-04T01:05:38;100299.69;;;20.55;65.27
66681;BME280;53575;51.366;12.350;2022-07-04T01:08:04;100294.16;;;20.60;65.10
66681;BME280;53575;51.366;12.350;2022-07-04T01:10:30;100305.59;;;20.62;65.40
66681;BME280;53575;51.366;12.350;2022-07-04T01:12:56;100314.38;;;20.43;65.98
66681;BME280;53575;51.366;12.350;2022-07-04T01:15:21;100307.72;;;20.35;66.70
66681;BME280;53575;51.366;12.350;2022-07-04T01:17:46;100305.56;;;20.24;67.42
66681;BME280;53575;51.366;12.350;2022-07-04T01:20:13;100304.94;;;20.38;67.22
66681;BME280;53575;51.366;12.350;2022-07-04T01:22:38;100314.75;;;20.36;66.96
66681;BME280;53575;51.366;12.350;2022-07-04T01:25:04;100313.25;;;20.30;67.71
66681;BME280;53575;51.366;12.350;2022-07-04T01:27:30;100328.09;;;20.34;67.52
66681;BME280;53575;51.366;12.350;2022-07-04T01:29:55;100317.84;;;20.45;67.19
66681;BME280;53575;51.366;12.350;2022-07-04T01:32:21;100325.00;;;20.25;67.92
66681;BME280;53575;51.366;12.350;2022-07-04T01:34:46;100321.38;;;20.07;68.57
66681;BME280;53575;51.366;12.350;2022-07-04T01:37:11;100321.41;;;20.26;68.10
66681;BME280;53575;51.366;12.350;2022-07-04T01:39:37;100317.16;;;20.21;68.36
66681;BME280;53575;51.366;12.350;2022-07-04T01:42:03;100325.78;;;20.08;68.82
66681;BME280;53575;51.366;12.350;2022-07-04T01:44:28;100326.75;;;20.05;68.99
66681;BME280;53575;51.366;12.350;2022-07-04T01:46:54;100320.31;;;20.11;68.80
66681;BME280;53575;51.366;12.350;2022-07-04T01:49:20;100326.19;;;20.17;68.52
66681;BME280;53575;51.366;12.350;2022-07-04T01:51:47;100329.63;;;20.01;68.99
66681;BME280;53575;51.366;12.350;2022-07-04T01:54:12;100329.59;;;19.82;69.70
66681;BME280;53575;51.366;12.350;2022-07-04T01:56:39;100338.66;;;19.96;69.11
66681;BME280;53575;51.366;12.350;2022-07-04T01:59:05;100340.97;;;20.04;69.27
66681;BME280;53575;51.366;12.350;2022-07-04T02:01:30;100334.47;;;19.91;69.44
66681;BME280;53575;51.366;12.350;2022-07-04T02:04:01;100348.16;;;19.82;69.90
66681;BME280;53575;51.366;12.350;2022-07-04T02:06:27;100355.56;;;19.94;69.65
66681;BME280;53575;51.366;12.350;2022-07-04T02:08:54;100354.22;;;19.84;69.83
66681;BME280;53575;51.366;12.350;2022-07-04T02:11:38;100359.63;;;19.82;69.85
66681;BME280;53575;51.366;12.350;2022-07-04T02:14:22;100361.13;;;19.67;70.43
66681;BME280;53575;51.366;12.350;2022-07-04T02:16:47;100364.72;;;19.66;70.55
66681;BME280;53575;51.366;12.350;2022-07-04T02:19:12;100365.78;;;19.62;70.96
66681;BME280;53575;51.366;12.350;2022-07-04T02:21:38;100374.91;;;19.76;70.58
66681;BME280;53575;51.366;12.350;2022-07-04T02:24:04;100376.84;;;19.72;70.49
66681;BME280;53575;51.366;12.350;2022-07-04T02:26:29;100396.28;;;19.51;71.58
66681;BME280;53575;51.366;12.350;2022-07-04T02:28:55;100385.81;;;19.47;71.74
66681;BME280;53575;51.366;12.350;2022-07-04T02:31:20;100377.44;;;19.36;72.34
66681;BME280;53575;51.366;12.350;2022-07-04T02:33:46;100381.56;;;19.43;72.08
66681;BME280;53575;51.366;12.350;2022-07-04T02:36:11;100377.13;;;19.44;72.33
66681;BME280;53575;51.366;12.350;2022-07-04T02:38:37;100378.22;;;19.38;72.55
66681;BME280;53575;51.366;12.350;2022-07-04T02:41:02;100399.25;;;19.21;73.36
66681;BME280;53575;51.366;12.350;2022-07-04T02:43:27;100390.56;;;19.39;73.09
66681;BME280;53575;51.366;12.350;2022-07-04T02:45:53;100384.41;;;19.39;72.77
66681;BME280;53575;51.366;12.350;2022-07-04T02:48:18;100374.88;;;19.35;73.32
66681;BME280;53575;51.366;12.350;2022-07-04T02:50:44;100375.19;;;19.27;73.28
66681;BME280;53575;51.366;12.350;2022-07-04T02:53:09;100378.47;;;19.12;74.20
66681;BME280;53575;51.366;12.350;2022-07-04T02:55:34;100386.56;;;19.29;73.26
66681;BME280;53575;51.366;12.350;2022-07-04T02:58:00;100382.25;;;19.27;73.57
66681;BME280;53575;51.366;12.350;2022-07-04T03:00:25;100374.13;;;19.09;73.90
66681;BME280;53575;51.366;12.350;2022-07-04T03:02:51;100382.31;;;19.03;74.46
66681;BME280;53575;51.366;12.350;2022-07-04T03:05:16;100394.34;;;19.12;73.79
66681;BME280;53575;51.366;12.350;2022-07-04T03:07:42;100395.13;;;19.14;73.66
66681;BME280;53575;51.366;12.350;2022-07-04T03:10:08;100399.22;;;19.01;74.04
66681;BME280;53575;51.366;12.350;2022-07-04T03:12:33;100404.19;;;19.08;73.47
66681;BME280;53575;51.366;12.350;2022-07-04T03:14:58;100403.31;;;19.08;73.86
66681;BME280;53575;51.366;12.350;2022-07-04T03:17:25;100407.38;;;18.94;74.49
66681;BME280;53575;51.366;12.350;2022-07-04T03:19:51;100410.88;;;18.95;74.39
66681;BME280;53575;51.366;12.350;2022-07-04T03:22:16;100424.78;;;19.23;73.09
66681;BME280;53575;51.366;12.350;2022-07-04T03:24:41;100428.63;;;19.15;73.29
66681;BME280;53575;51.366;12.350;2022-07-04T03:27:07;100436.88;;;18.85;74.44
66681;BME280;53575;51.366;12.350;2022-07-04T03:29:33;100440.59;;;18.80;74.88
66681;BME280;53575;51.366;12.350;2022-07-04T03:31:58;100440.06;;;18.70;75.32
66681;BME280;53575;51.366;12.350;2022-07-04T03:34:23;100441.44;;;18.82;74.86
66681;BME280;53575;51.366;12.350;2022-07-04T03:36:49;100442.56;;;18.74;75.28
66681;BME280;53575;51.366;12.350;2022-07-04T03:39:14;100436.06;;;18.58;75.85
66681;BME280;53575;51.366;12.350;2022-07-04T03:41:40;100437.88;;;18.58;75.67
66681;BME280;53575;51.366;12.350;2022-07-04T03:44:05;100446.63;;;18.60;75.72
66681;BME280;53575;51.366;12.350;2022-07-04T03:46:30;100452.13;;;18.54;75.93
66681;BME280;53575;51.366;12.350;2022-07-04T03:48:56;100467.44;;;18.69;74.82
66681;BME280;53575;51.366;12.350;2022-07-04T03:51:21;100464.00;;;18.67;74.91
66681;BME280;53575;51.366;12.350;2022-07-04T03:53:48;100467.91;;;18.82;74.48
66681;BME280;53575;51.366;12.350;2022-07-04T03:56:14;100461.03;;;18.99;71.72
66681;BME280;53575;51.366;12.350;2022-07-04T03:58:40;100460.19;;;18.75;72.69
66681;BME280;53575;51.366;12.350;2022-07-04T04:01:10;100467.63;;;18.89;71.84
66681;BME280;53575;51.366;12.350;2022-07-04T04:03:35;100455.75;;;18.76;72.08
66681;BME280;53575;51.366;12.350;2022-07-04T04:06:20;100470.56;;;18.82;72.04
66681;BME280;53575;51.366;12.350;2022-07-04T04:08:45;100465.72;;;18.68;72.88
66681;BME280;53575;51.366;12.350;2022-07-04T04:11:11;100463.63;;;19.01;71.95
66681;BME280;53575;51.366;12.350;2022-07-04T04:13:36;100476.88;;;19.01;71.30
66681;BME280;53575;51.366;12.350;2022-07-04T04:16:02;100466.13;;;18.82;71.65
66681;BME280;53575;51.366;12.350;2022-07-04T04:18:27;100478.03;;;18.70;72.75
66681;BME280;53575;51.366;12.350;2022-07-04T04:20:53;100476.91;;;18.99;72.18
66681;BME280;53575;51.366;12.350;2022-07-04T04:23:18;100478.53;;;19.04;71.19
66681;BME280;53575;51.366;12.350;2022-07-04T04:25:45;100474.06;;;18.82;72.38
66681;BME280;53575;51.366;12.350;2022-07-04T04:28:10;100471.63;;;18.99;71.88
66681;BME280;53575;51.366;12.350;2022-07-04T04:30:36;100466.00;;;18.85;72.14
66681;BME280;53575;51.366;12.350;2022-07-04T04:33:01;100458.59;;;18.70;71.88
66681;BME280;53575;51.366;12.350;2022-07-04T04:35:27;100469.19;;;18.70;72.04
66681;BME280;53575;51.366;12.350;2022-07-04T04:37:52;100472.19;;;18.84;71.02
66681;BME280;53575;51.366;12.350;2022-07-04T04:40:17;100469.41;;;19.11;69.79
66681;BME280;53575;51.366;12.350;2022-07-04T04:42:43;100471.50;;;19.03;69.89
66681;BME280;53575;51.366;12.350;2022-07-04T04:45:08;100469.13;;;18.96;69.90
66681;BME280;53575;51.366;12.350;2022-07-04T04:47:34;100476.91;;;18.76;71.03
66681;BME280;53575;51.366;12.350;2022-07-04T04:49:59;100476.25;;;18.71;72.02
66681;BME280;53575;51.366;12.350;2022-07-04T04:52:26;100489.13;;;18.80;71.81
66681;BME280;53575;51.366;12.350;2022-07-04T04:54:51;100490.53;;;18.90;70.93
66681;BME280;53575;51.366;12.350;2022-07-04T04:57:17;100488.44;;;18.75;71.98
66681;BME280;53575;51.366;12.350;2022-07-04T04:59:42;100490.69;;;19.09;69.74
66681;BME280;53575;51.366;12.350;2022-07-04T05:02:08;100484.13;;;19.19;68.81
66681;BME280;53575;51.366;12.350;2022-07-04T05:04:33;100478.13;;;19.14;68.27
66681;BME280;53575;51.366;12.350;2022-07-04T05:06:59;100478.84;;;19.18;67.48
66681;BME280;53575;51.366;12.350;2022-07-04T05:09:25;100478.66;;;19.22;67.33
66681;BME280;53575;51.366;12.350;2022-07-04T05:11:50;100483.03;;;19.02;68.30
66681;BME280;53575;51.366;12.350;2022-07-04T05:14:16;100478.53;;;19.04;67.89
66681;BME280;53575;51.366;12.350;2022-07-04T05:16:41;100488.59;;;19.17;66.95
66681;BME280;53575;51.366;12.350;2022-07-04T05:19:07;100492.59;;;19.06;67.48
66681;BME280;53575;51.366;12.350;2022-07-04T05:21:32;100505.66;;;19.10;66.74
66681;BME280;53575;51.366;12.350;2022-07-04T05:23:58;100505.75;;;19.07;66.70
66681;BME280;53575;51.366;12.350;2022-07-04T05:26:24;100509.44;;;19.03;66.95
66681;BME280;53575;51.366;12.350;2022-07-04T05:28:49;100508.00;;;18.94;67.36
66681;BME280;53575;51.366;12.350;2022-07-04T05:31:14;100504.03;;;19.06;66.66
66681;BME280;53575;51.366;12.350;2022-07-04T05:33:40;100508.00;;;18.94;67.20
66681;BME280;53575;51.366;12.350;2022-07-04T05:36:06;100523.78;;;18.97;66.72
66681;BME280;53575;51.366;12.350;2022-07-04T05:38:32;100515.13;;;18.92;66.75
66681;BME280;53575;51.366;12.350;2022-07-04T05:40:57;100522.78;;;19.00;66.78
66681;BME280;53575;51.366;12.350;2022-07-04T05:43:22;100513.66;;;19.09;66.51
66681;BME280;53575;51.366;12.350;2022-07-04T05:45:50;100515.00;;;18.97;67.09
66681;BME280;53575;51.366;12.350;2022-07-04T05:48:16;100521.47;;;18.88;67.35
66681;BME280;53575;51.366;12.350;2022-07-04T05:50:41;100529.31;;;18.91;66.96
66681;BME280;53575;51.366;12.350;2022-07-04T05:53:06;100524.59;;;18.99;67.12
66681;BME280;53575;51.366;12.350;2022-07-04T05:55:32;100531.63;;;19.01;66.73
66681;BME280;53575;51.366;12.350;2022-07-04T05:57:59;100530.75;;;19.23;65.93
66681;BME280;53575;51.366;12.350;2022-07-04T06:00:24;100547.13;;;19.35;65.45
66681;BME280;53575;51.366;12.350;2022-07-04T06:02:49;100546.47;;;19.28;65.77
66681;BME280;53575;51.366;12.350;2022-07-04T06:05:15;100545.44;;;19.32;65.19
66681;BME280;53575;51.366;12.350;2022-07-04T06:07:41;100547.97;;;19.35;65.40
66681;BME280;53575;51.366;12.350;2022-07-04T06:10:07;100550.25;;;19.44;64.82
66681;BME280;53575;51.366;12.350;2022-07-04T06:12:33;100548.00;;;19.34;65.04
66681;BME280;53575;51.366;12.350;2022-07-04T06:14:58;100560.44;;;19.55;64.08
66681;BME280;53575;51.366;12.350;2022-07-04T06:17:24;100559.69;;;19.52;64.11
66681;BME280;53575;51.366;12.350;2022-07-04T06:19:49;100557.16;;;19.48;63.57
66681;BME280;53575;51.366;12.350;2022-07-04T06:22:15;100556.19;;;19.51;63.76
66681;BME280;53575;51.366;12.350;2022-07-04T06:24:40;100537.97;;;19.42;63.66
66681;BME280;53575;51.366;12.350;2022-07-04T06:27:05;100557.34;;;19.44;64.25
66681;BME280;53575;51.366;12.350;2022-07-04T06:29:31;100545.44;;;19.78;62.87
66681;BME280;53575;51.366;12.350;2022-07-04T06:31:56;100557.34;;;19.89;61.83
66681;BME280;53575;51.366;12.350;2022-07-04T06:34:22;100561.28;;;19.79;62.39
66681;BME280;53575;51.366;12.350;2022-07-04T06:37:06;100560.50;;;19.77;62.02
66681;BME280;53575;51.366;12.350;2022-07-04T06:39:31;100559.78;;;19.94;61.38
66681;BME280;53575;51.366;12.350;2022-07-04T06:41:56;100557.38;;;19.88;60.98
66681;BME280;53575;51.366;12.350;2022-07-04T06:44:22;100556.19;;;19.95;59.38
66681;BME280;53575;51.366;12.350;2022-07-04T06:46:48;100556.91;;;19.78;59.55
66681;BME280;53575;51.366;12.350;2022-07-04T06:49:13;100547.97;;;19.81;59.79
66681;BME280;53575;51.366;12.350;2022-07-04T06:51:39;100552.97;;;19.88;59.89
66681;BME280;53575;51.366;12.350;2022-07-04T06:54:05;100556.50;;;20.09;59.94
66681;BME280;53575;51.366;12.350;2022-07-04T06:56:30;100557.44;;;20.08;60.53
66681;BME280;53575;51.366;12.350;2022-07-04T06:58:56;100553.41;;;20.20;58.85
66681;BME280;53575;51.366;12.350;2022-07-04T07:01:21;100559.13;;;20.31;57.95
66681;BME280;53575;51.366;12.350;2022-07-04T07:03:47;100562.75;;;20.29;56.99
66681;BME280;53575;51.366;12.350;2022-07-04T07:06:12;100564.09;;;20.18;57.73
66681;BME280;53575;51.366;12.350;2022-07-04T07:08:38;100564.22;;;20.15;57.31
66681;BME280;53575;51.366;12.350;2022-07-04T07:11:03;100569.94;;;20.27;56.82
66681;BME280;53575;51.366;12.350;2022-07-04T07:13:42;100561.69;;;20.33;55.74
66681;BME280;53575;51.366;12.350;2022-07-04T07:16:08;100566.47;;;20.25;56.76
66681;BME280;53575;51.366;12.350;2022-07-04T07:18:34;100541.31;;;20.13;56.62
66681;BME280;53575;51.366;12.350;2022-07-04T07:21:00;100559.16;;;20.52;55.66
66681;BME280;53575;51.366;12.350;2022-07-04T07:23:25;100559.84;;;20.57;54.61
66681;BME280;53575;51.366;12.350;2022-07-04T07:25:50;100571.31;;;20.57;54.28
66681;BME280;53575;51.366;12.350;2022-07-04T07:28:16;100559.31;;;20.47;54.80
66681;BME280;53575;51.366;12.350;2022-07-04T07:30:42;100560.50;;;20.62;53.87
66681;BME280;53575;51.366;12.350;2022-07-04T07:33:07;100547.94;;;20.65;53.72
66681;BME280;53575;51.366;12.350;2022-07-04T07:35:32;100552.00;;;20.54;53.17
66681;BME280;53575;51.366;12.350;2022-07-04T07:37:58;100557.41;;;20.71;53.10
66681;BME280;53575;51.366;12.350;2022-07-04T07:40:23;100545.94;;;20.91;52.69
66681;BME280;53575;51.366;12.350;2022-07-04T07:42:49;100549.56;;;20.88;53.27
66681;BME280;53575;51.366;12.350;2022-07-04T07:45:15;100555.31;;;20.98;53.33
66681;BME280;53575;51.366;12.350;2022-07-04T07:47:40;100560.63;;;20.98;53.94
66681;BME280;53575;51.366;12.350;2022-07-04T07:50:06;100559.94;;;21.13;53.81
66681;BME280;53575;51.366;12.350;2022-07-04T07:52:31;100564.91;;;21.21;53.66
66681;BME280;53575;51.366;12.350;2022-07-04T07:54:57;100562.91;;;21.26;51.20
66681;BME280;53575;51.366;12.350;2022-07-04T07:57:22;100557.44;;;21.10;51.06
66681;BME280;53575;51.366;12.350;2022-07-04T07:59:48;100557.50;;;21.09;51.82
66681;BME280;53575;51.366;12.350;2022-07-04T08:02:13;100563.97;;;21.22;51.58
66681;BME280;53575;51.366;12.350;2022-07-04T08:04:38;100555.34;;;21.17;51.42
66681;BME280;53575;51.366;12.350;2022-07-04T08:07:07;100553.41;;;21.21;51.44
66681;BME280;53575;51.366;12.350;2022-07-04T08:09:34;100564.91;;;21.21;51.81
66681;BME280;53575;51.366;12.350;2022-07-04T08:12:00;100556.19;;;21.17;52.13
66681;BME280;53575;51.366;12.350;2022-07-04T08:14:26;100560.31;;;21.25;51.64
66681;BME280;53575;51.366;12.350;2022-07-04T08:16:52;100551.00;;;21.35;51.81
66681;BME280;53575;51.366;12.350;2022-07-04T08:19:18;100549.28;;;21.34;51.99
66681;BME280;53575;51.366;12.350;2022-07-04T08:21:44;100540.69;;;21.27;51.65
66681;BME280;53575;51.366;12.350;2022-07-04T08:24:12;100553.44;;;21.39;51.92
66681;BME280;53575;51.366;12.350;2022-07-04T08:26:38;100550.28;;;21.50;52.09
66681;BME280;53575;51.366;12.350;2022-07-04T08:29:03;100551.09;;;21.52;52.36
66681;BME280;53575;51.366;12.350;2022-07-04T08:31:28;100552.72;;;21.55;51.97
66681;BME280;53575;51.366;12.350;2022-07-04T08:33:56;100544.09;;;21.50;52.04
66681;BME280;53575;51.366;12.350;2022-07-04T08:36:22;100550.06;;;21.55;52.19
66681;BME280;53575;51.366;12.350;2022-07-04T08:38:47;100542.56;;;21.63;52.07
66681;BME280;53575;51.366;12.350;2022-07-04T08:41:15;100554.44;;;21.56;52.36
66681;BME280;53575;51.366;12.350;2022-07-04T08:43:41;100546.97;;;21.64;52.37
66681;BME280;53575;51.366;12.350;2022-07-04T08:46:06;100551.38;;;21.82;52.16
66681;BME280;53575;51.366;12.350;2022-07-04T08:48:32;100535.50;;;21.81;51.26
66681;BME280;53575;51.366;12.350;2022-07-04T08:51:12;100547.28;;;22.11;50.39
66681;BME280;53575;51.366;12.350;2022-07-04T08:53:38;100557.13;;;21.92;49.77
66681;BME280;53575;51.366;12.350;2022-07-04T08:56:06;100552.28;;;22.00;50.57
66681;BME280;53575;51.366;12.350;2022-07-04T08:58:53;100541.25;;;22.08;49.31
66681;BME280;53575;51.366;12.350;2022-07-04T09:01:20;100548.38;;;22.07;50.52
66681;BME280;53575;51.366;12.350;2022-07-04T09:03:46;100548.59;;;22.03;49.90
66681;BME280;53575;51.366;12.350;2022-07-04T09:06:12;100551.19;;;22.04;49.53
66681;BME280;53575;51.366;12.350;2022-07-04T09:08:38;100553.38;;;21.96;48.63
66681;BME280;53575;51.366;12.350;2022-07-04T09:11:04;100550.50;;;21.82;48.43
66681;BME280;53575;51.366;12.350;2022-07-04T09:13:31;100553.78;;;21.70;48.67
66681;BME280;53575;51.366;12.350;2022-07-04T09:15:56;100562.03;;;21.63;48.71
66681;BME280;53575;51.366;12.350;2022-07-04T09:18:26;100560.16;;;21.84;48.24
66681;BME280;53575;51.366;12.350;2022-07-04T09:21:01;100555.69;;;21.85;48.38
66681;BME280;53575;51.366;12.350;2022-07-04T09:23:29;100560.97;;;22.04;48.06
66681;BME280;53575;51.366;12.350;2022-07-04T09:26:06;100554.78;;;22.03;47.49
66681;BME280;53575;51.366;12.350;2022-07-04T09:28:33;100562.44;;;21.92;47.33
66681;BME280;53575;51.366;12.350;2022-07-04T09:30:59;100558.13;;;21.89;46.99
66681;BME280;53575;51.366;12.350;2022-07-04T09:34:02;100557.59;;;21.64;48.63
66681;BME280;53575;51.366;12.350;2022-07-04T09:36:33;100557.19;;;21.54;48.20
66681;BME280;53575;51.366;12.350;2022-07-04T09:39:19;100541.81;;;21.42;47.47
66681;BME280;53575;51.366;12.350;2022-07-04T09:42:01;100562.13;;;21.43;47.25
66681;BME280;53575;51.366;12.350;2022-07-04T09:46:59;100555.66;;;21.11;46.94
66681;BME280;53575;51.366;12.350;2022-07-04T09:49:25;100555.53;;;21.33;46.52
66681;BME280;53575;51.366;12.350;2022-07-04T09:51:52;100546.81;;;21.29;47.37
66681;BME280;53575;51.366;12.350;2022-07-04T09:54:20;100548.13;;;21.39;47.17
66681;BME280;53575;51.366;12.350;2022-07-04T09:56:49;100542.03;;;21.56;47.22
66681;BME280;53575;51.366;12.350;2022-07-04T09:59:16;100549.00;;;21.95;45.75
66681;BME280;53575;51.366;12.350;2022-07-04T10:01:41;100547.94;;;21.98;44.91
66681;BME280;53575;51.366;12.350;2022-07-04T10:04:07;100550.59;;;21.80;45.41
66681;BME280;53575;51.366;12.350;2022-07-04T10:06:34;100535.50;;;21.81;45.83
66681;BME280;53575;51.366;12.350;2022-07-04T10:09:13;100544.75;;;21.91;45.90
66681;BME280;53575;51.366;12.350;2022-07-04T10:11:41;100552.28;;;22.00;45.86
66681;BME280;53575;51.366;12.350;2022-07-04T10:14:08;100543.00;;;21.90;46.68
66681;BME280;53575;51.366;12.350;2022-07-04T10:16:35;100538.59;;;21.90;46.60
66681;BME280;53575;51.366;12.350;2022-07-04T10:19:02;100523.53;;;21.89;46.89
66681;BME280;53575;51.366;12.350;2022-07-04T10:21:28;100534.75;;;21.96;46.84
66681;BME280;53575;51.366;12.350;2022-07-04T10:23:54;100521.34;;;21.98;47.16
66681;BME280;53575;51.366;12.350;2022-07-04T10:26:20;100516.69;;;22.03;47.44
66681;BME280;53575;51.366;12.350;2022-07-04T10:28:48;100519.28;;;22.22;47.32
66681;BME280;53575;51.366;12.350;2022-07-04T10:31:15;100510.50;;;22.20;47.30
66681;BME280;53575;51.366;12.350;2022-07-04T10:33:41;100510.53;;;22.37;47.61
66681;BME280;53575;51.366;12.350;2022-07-04T10:36:19;100508.75;;;22.71;46.76
66681;BME280;53575;51.366;12.350;2022-07-04T10:38:53;100508.69;;;22.88;47.10
66681;BME280;53575;51.366;12.350;2022-07-04T10:41:20;100511.06;;;22.94;45.68
66681;BME280;53575;51.366;12.350;2022-07-04T10:43:57;100506.25;;;23.01;45.49
66681;BME280;53575;51.366;12.350;2022-07-04T10:49:08;100494.81;;;22.81;46.01
66681;BME280;53575;51.366;12.350;2022-07-04T10:51:49;100503.13;;;22.93;46.53
66681;BME280;53575;51.366;12.350;2022-07-04T10:54:34;100495.56;;;23.01;46.24
66681;BME280;53575;51.366;12.350;2022-07-04T10:57:20;100505.84;;;23.24;45.66
66681;BME280;53575;51.366;12.350;2022-07-04T11:05:06;100494.34;;;23.24;45.98
66681;BME280;53575;51.366;12.350;2022-07-04T11:18:04;100491.25;;;23.31;45.47
66681;BME280;53575;51.366;12.350;2022-07-04T11:20:32;100485.63;;;23.36;46.06
66681;BME280;53575;51.366;12.350;2022-07-04T11:23:08;100490.78;;;23.55;45.55
66681;BME280;53575;51.366;12.350;2022-07-04T11:25:34;100474.09;;;23.67;44.93
66681;BME280;53575;51.366;12.350;2022-07-04T11:28:28;100480.44;;;23.80;44.63
66681;BME280;53575;51.366;12.350;2022-07-04T11:31:00;100488.34;;;23.82;44.84
66681;BME280;53575;51.366;12.350;2022-07-04T11:33:35;100477.72;;;23.66;45.05
66681;BME280;53575;51.366;12.350;2022-07-04T11:36:06;100481.28;;;23.65;45.59
66681;BME280;53575;51.366;12.350;2022-07-04T11:41:17;100477.84;;;23.79;45.38
66681;BME280;53575;51.366;12.350;2022-07-04T11:44:22;100476.28;;;23.91;44.42
66681;BME280;53575;51.366;12.350;2022-07-04T11:49:43;100475.81;;;23.98;44.82
66681;BME280;53575;51.366;12.350;2022-07-04T11:52:10;100467.31;;;23.92;44.59
66681;BME280;53575;51.366;12.350;2022-07-04T11:54:35;100478.66;;;23.95;43.99
66681;BME280;53575;51.366;12.350;2022-07-04T11:57:15;100477.19;;;23.75;44.95
66681;BME280;53575;51.366;12.350;2022-07-04T11:59:42;100473.59;;;23.91;45.24
66681;BME280;53575;51.366;12.350;2022-07-04T12:02:12;100468.44;;;23.88;46.50
66681;BME280;53575;51.366;12.350;2022-07-04T12:04:39;100471.56;;;23.80;45.94
66681;BME280;53575;51.366;12.350;2022-07-04T12:07:14;100456.19;;;23.69;45.62
66681;BME280;53575;51.366;12.350;2022-07-04T12:09:40;100457.94;;;23.84;47.18
66681;BME280;53575;51.366;12.350;2022-07-04T12:12:06;100455.25;;;24.15;45.59
66681;BME280;53575;51.366;12.350;2022-07-04T12:14:32;100459.75;;;24.14;44.98
66681;BME280;53575;51.366;12.350;2022-07-04T12:19:38;100456.28;;;23.98;43.65
66681;BME280;53575;51.366;12.350;2022-07-04T12:22:03;100462.06;;;23.90;44.29
66681;BME280;53575;51.366;12.350;2022-07-04T12:24:40;100456.19;;;23.69;44.83
66681;BME280;53575;51.366;12.350;2022-07-04T12:27:05;100460.44;;;23.88;44.70
66681;BME280;53575;51.366;12.350;2022-07-04T12:29:31;100445.97;;;23.92;44.78
66681;BME280;53575;51.366;12.350;2022-07-04T12:31:56;100442.13;;;24.12;43.98
66681;BME280;53575;51.366;12.350;2022-07-04T12:34:22;100432.41;;;24.25;43.70
66681;BME280;53575;51.366;12.350;2022-07-04T12:36:54;100439.66;;;24.37;43.70
66681;BME280;53575;51.366;12.350;2022-07-04T12:39:35;100439.88;;;24.48;43.03
66681;BME280;53575;51.366;12.350;2022-07-04T12:42:15;100441.03;;;24.44;43.42
66681;BME280;53575;51.366;12.350;2022-07-04T12:44:43;100435.78;;;24.57;42.89
66681;BME280;53575;51.366;12.350;2022-07-04T12:47:09;100425.25;;;24.68;42.53
66681;BME280;53575;51.366;12.350;2022-07-04T12:49:35;100417.66;;;24.62;41.92
66681;BME280;53575;51.366;12.350;2022-07-04T12:54:30;100431.16;;;24.88;40.83
66681;BME280;53575;51.366;12.350;2022-07-04T12:57:07;100428.28;;;24.91;39.23
66681;BME280;53575;51.366;12.350;2022-07-04T12:59:33;100442.53;;;24.91;39.34
66681;BME280;53575;51.366;12.350;2022-07-04T13:01:59;100442.63;;;24.61;39.37
66681;BME280;53575;51.366;12.350;2022-07-04T13:04:24;100446.06;;;24.49;39.21
66681;BME280;53575;51.366;12.350;2022-07-04T13:06:50;100448.38;;;24.55;39.51
66681;BME280;53575;51.366;12.350;2022-07-04T13:09:15;100448.28;;;24.56;39.80
66681;BME280;53575;51.366;12.350;2022-07-04T13:11:41;100444.94;;;24.67;39.98
66681;BME280;53575;51.366;12.350;2022-07-04T13:14:25;100443.78;;;24.71;40.09